Home > Products > Valid Products > TAF

000
FTUS44 KMRX 041128
TAFTYS
TAF
KTYS 041128Z 0412/0512 23011G18KT P6SM VCSH SCT015 BKN025
      TEMPO 0412/0414 5SM -RA BR BKN015 OVC025
     FM041700 23012G22KT P6SM BKN035
     FM042200 25012G22KT 4SM -SHRA BR OVC035
     FM050200 35010KT 3SM -RA BR OVC020
     FM050600 01011KT 6SM -RA BR SCT007 OVC015=



000
FTUS44 KMRX 041128
TAFTRI
TAF
KTRI 041128Z 0412/0512 VRB03KT 1 1/2SM BR VCSH SCT003 OVC020
      WS020/23045KT
      TEMPO 0412/0414 1/2SM -RA FG OVC003
     FM041500 22007KT 4SM -SHRA BR SCT015 OVC025
     FM041800 24010KT P6SM BKN035
     FM042100 24011KT 4SM -SHRA BR OVC040
     FM050300 30007KT 3SM -RA BR SCT007 OVC015=



000
FTUS44 KMRX 041128
TAFTYS
TAF
KTYS 041128Z 0412/0512 23011G18KT P6SM VCSH SCT015 BKN025
      TEMPO 0412/0414 5SM -RA BR BKN015 OVC025
     FM041700 23012G22KT P6SM BKN035
     FM042200 25012G22KT 4SM -SHRA BR OVC035
     FM050200 35010KT 3SM -RA BR OVC020
     FM050600 01011KT 6SM -RA BR SCT007 OVC015=



000
FTUS44 KMRX 041128
TAFCHA
TAF
KCHA 041128Z 0412/0512 17007KT 6SM BR VCSH SCT015 OVC020
      TEMPO 0412/0414 3SM -RA BR BKN005 OVC015
     FM041800 21010KT P6SM BKN035
     FM042200 22010KT 5SM -SHRA BR OVC040
     FM050200 36012KT 3SM -RA BR OVC020
     FM050700 01012KT 6SM -RA BR SCT007 OVC015=



000
FTUS44 KMRX 041128
TAFTRI
TAF
KTRI 041128Z 0412/0512 VRB03KT 1 1/2SM BR VCSH SCT003 OVC020
      WS020/23045KT
      TEMPO 0412/0414 1/2SM -RA FG OVC003
     FM041500 22007KT 4SM -SHRA BR SCT015 OVC025
     FM041800 24010KT P6SM BKN035
     FM042100 24011KT 4SM -SHRA BR OVC040
     FM050300 30007KT 3SM -RA BR SCT007 OVC015=



000
FTUS44 KMRX 041128
TAFCHA
TAF
KCHA 041128Z 0412/0512 17007KT 6SM BR VCSH SCT015 OVC020
      TEMPO 0412/0414 3SM -RA BR BKN005 OVC015
     FM041800 21010KT P6SM BKN035
     FM042200 22010KT 5SM -SHRA BR OVC040
     FM050200 36012KT 3SM -RA BR OVC020
     FM050700 01012KT 6SM -RA BR SCT007 OVC015=



000
FTUS44 KMRX 041008 AAA
TAFCHA
TAF AMD
KCHA 041008Z 0410/0506 18005KT 6SM BR OVC015 WS020/21045KT
      TEMPO 0410/0413 3SM -RA BR BKN005 OVC015
     FM041300 21007KT 6SM BR BKN035 OVC070
     FM041500 21008G20KT P6SM SCT030 BKN060
     FM042200 22010KT 4SM -SHRA BR OVC040
     FM050300 36012KT 3SM SHRA BR OVC020=



000
FTUS44 KMRX 041008 AAA
TAFCHA
TAF AMD
KCHA 041008Z 0410/0506 18005KT 6SM BR OVC015 WS020/21045KT
      TEMPO 0410/0413 3SM -RA BR BKN005 OVC015
     FM041300 21007KT 6SM BR BKN035 OVC070
     FM041500 21008G20KT P6SM SCT030 BKN060
     FM042200 22010KT 4SM -SHRA BR OVC040
     FM050300 36012KT 3SM SHRA BR OVC020=



000
FTUS44 KMRX 041008 AAA
TAFCHA
TAF AMD
KCHA 041008Z 0410/0506 18005KT 6SM BR OVC015 WS020/21045KT
      TEMPO 0410/0413 3SM -RA BR BKN005 OVC015
     FM041300 21007KT 6SM BR BKN035 OVC070
     FM041500 21008G20KT P6SM SCT030 BKN060
     FM042200 22010KT 4SM -SHRA BR OVC040
     FM050300 36012KT 3SM SHRA BR OVC020=



000
FTUS44 KMRX 040906 AAA
TAFTRI
TAF AMD
KTRI 040906Z 0409/0506 00000KT 1 1/2SM BR VCSH SCT002 OVC020
      WS020/23045KT
      TEMPO 0409/0411 1/2SM -RA FG OVC002
     FM041100 VRB02KT 3SM -RA BR SCT005 OVC025 WS020/23045KT
     FM041300 22007KT 4SM -SHRA BR SCT015 OVC025
     FM041600 24010KT P6SM SCT030 OVC060
     FM042100 24011KT 4SM -SHRA BR OVC040
     FM050300 30007KT 3SM SHRA BR OVC015=



000
FTUS44 KMRX 040906 AAA
TAFTRI
TAF AMD
KTRI 040906Z 0409/0506 00000KT 1 1/2SM BR VCSH SCT002 OVC020
      WS020/23045KT
      TEMPO 0409/0411 1/2SM -RA FG OVC002
     FM041100 VRB02KT 3SM -RA BR SCT005 OVC025 WS020/23045KT
     FM041300 22007KT 4SM -SHRA BR SCT015 OVC025
     FM041600 24010KT P6SM SCT030 OVC060
     FM042100 24011KT 4SM -SHRA BR OVC040
     FM050300 30007KT 3SM SHRA BR OVC015=



000
FTUS44 KMRX 040534
TAFCHA
TAF
KCHA 040534Z 0406/0506 20003KT 1SM BR OVC002 WS020/21045KT
      TEMPO 0407/0410 2SM -DZ BR BKN007 OVC015
     FM041000 21007KT 6SM BR BKN035 OVC070
     FM041400 21008G20KT P6SM SCT030 BKN060
     FM042200 22010KT 4SM -SHRA BR OVC040
     FM050300 36012KT 3SM SHRA BR OVC020=



000
FTUS44 KMRX 040534
TAFTRI
TAF
KTRI 040534Z 0406/0506 00000KT 1 1/2SM BR VCSH SCT002 OVC020
      WS020/23045KT
      TEMPO 0406/0409 3/4SM -RA BR OVC002
     FM040900 VRB02KT 3SM -RA BR SCT005 OVC025 WS020/23045KT
     FM041300 22007KT 4SM -SHRA BR SCT015 OVC025
     FM041600 24010KT P6SM SCT030 OVC060
     FM042100 24011KT 4SM -SHRA BR OVC040
     FM050300 30007KT 3SM SHRA BR OVC015=



000
FTUS44 KMRX 040534
TAFTYS
TAF
KTYS 040534Z 0406/0506 23006KT 5SM BR SCT005 OVC025 WS020/21050KT
      TEMPO 0406/0409 1SM -DZ BR BKN002 OVC015
     FM041200 23011G18KT P6SM SCT015 BKN035
     FM041700 23014G25KT P6SM SCT035 BKN070
     FM042100 25012KT 4SM -SHRA BR OVC035
     FM050300 36010KT 3SM SHRA BR OVC020=



000
FTUS44 KMRX 040534
TAFCHA
TAF
KCHA 040534Z 0406/0506 20003KT 1SM BR OVC002 WS020/21045KT
      TEMPO 0407/0410 2SM -DZ BR BKN007 OVC015
     FM041000 21007KT 6SM BR BKN035 OVC070
     FM041400 21008G20KT P6SM SCT030 BKN060
     FM042200 22010KT 4SM -SHRA BR OVC040
     FM050300 36012KT 3SM SHRA BR OVC020=



000
FTUS44 KMRX 040534
TAFTYS
TAF
KTYS 040534Z 0406/0506 23006KT 5SM BR SCT005 OVC025 WS020/21050KT
      TEMPO 0406/0409 1SM -DZ BR BKN002 OVC015
     FM041200 23011G18KT P6SM SCT015 BKN035
     FM041700 23014G25KT P6SM SCT035 BKN070
     FM042100 25012KT 4SM -SHRA BR OVC035
     FM050300 36010KT 3SM SHRA BR OVC020=



000
FTUS44 KMRX 040534
TAFTYS
TAF
KTYS 040534Z 0406/0506 23006KT 5SM BR SCT005 OVC025 WS020/21050KT
      TEMPO 0406/0409 1SM -DZ BR BKN002 OVC015
     FM041200 23011G18KT P6SM SCT015 BKN035
     FM041700 23014G25KT P6SM SCT035 BKN070
     FM042100 25012KT 4SM -SHRA BR OVC035
     FM050300 36010KT 3SM SHRA BR OVC020=



000
FTUS44 KMRX 040534
TAFTRI
TAF
KTRI 040534Z 0406/0506 00000KT 1 1/2SM BR VCSH SCT002 OVC020
      WS020/23045KT
      TEMPO 0406/0409 3/4SM -RA BR OVC002
     FM040900 VRB02KT 3SM -RA BR SCT005 OVC025 WS020/23045KT
     FM041300 22007KT 4SM -SHRA BR SCT015 OVC025
     FM041600 24010KT P6SM SCT030 OVC060
     FM042100 24011KT 4SM -SHRA BR OVC040
     FM050300 30007KT 3SM SHRA BR OVC015=



000
FTUS44 KMRX 040534
TAFTRI
TAF
KTRI 040534Z 0406/0506 00000KT 1 1/2SM BR VCSH SCT002 OVC020
      WS020/23045KT
      TEMPO 0406/0409 3/4SM -RA BR OVC002
     FM040900 VRB02KT 3SM -RA BR SCT005 OVC025 WS020/23045KT
     FM041300 22007KT 4SM -SHRA BR SCT015 OVC025
     FM041600 24010KT P6SM SCT030 OVC060
     FM042100 24011KT 4SM -SHRA BR OVC040
     FM050300 30007KT 3SM SHRA BR OVC015=



000
FTUS44 KMRX 040534
TAFCHA
TAF
KCHA 040534Z 0406/0506 20003KT 1SM BR OVC002 WS020/21045KT
      TEMPO 0407/0410 2SM -DZ BR BKN007 OVC015
     FM041000 21007KT 6SM BR BKN035 OVC070
     FM041400 21008G20KT P6SM SCT030 BKN060
     FM042200 22010KT 4SM -SHRA BR OVC040
     FM050300 36012KT 3SM SHRA BR OVC020=



000
FTUS44 KMRX 040534
TAFTRI
TAF
KTRI 040534Z 0406/0506 00000KT 1 1/2SM BR VCSH SCT002 OVC020
      WS020/23045KT
      TEMPO 0406/0409 3/4SM -RA BR OVC002
     FM040900 VRB02KT 3SM -RA BR SCT005 OVC025 WS020/23045KT
     FM041300 22007KT 4SM -SHRA BR SCT015 OVC025
     FM041600 24010KT P6SM SCT030 OVC060
     FM042100 24011KT 4SM -SHRA BR OVC040
     FM050300 30007KT 3SM SHRA BR OVC015=



000
FTUS44 KMRX 040534
TAFTYS
TAF
KTYS 040534Z 0406/0506 23006KT 5SM BR SCT005 OVC025 WS020/21050KT
      TEMPO 0406/0409 1SM -DZ BR BKN002 OVC015
     FM041200 23011G18KT P6SM SCT015 BKN035
     FM041700 23014G25KT P6SM SCT035 BKN070
     FM042100 25012KT 4SM -SHRA BR OVC035
     FM050300 36010KT 3SM SHRA BR OVC020=



000
FTUS44 KMRX 040534
TAFCHA
TAF
KCHA 040534Z 0406/0506 20003KT 1SM BR OVC002 WS020/21045KT
      TEMPO 0407/0410 2SM -DZ BR BKN007 OVC015
     FM041000 21007KT 6SM BR BKN035 OVC070
     FM041400 21008G20KT P6SM SCT030 BKN060
     FM042200 22010KT 4SM -SHRA BR OVC040
     FM050300 36012KT 3SM SHRA BR OVC020=



000
FTUS44 KMRX 040418 AAB
TAFTRI
TAF AMD
KTRI 040418Z 0404/0424 00000KT 1 1/2SM BR VCSH BKN002 OVC015
      TEMPO 0404/0406 3/4SM BR OVC002
     FM041000 VRB02KT 3SM BR VCSH SCT005 OVC015
     FM041300 22003KT 6SM BR SCT015 OVC025
     FM041400 24010G20KT P6SM SCT050 BKN090
     FM042100 24010KT 5SM -SHRA BR OVC040=



000
FTUS44 KMRX 040418 AAB
TAFTRI
TAF AMD
KTRI 040418Z 0404/0424 00000KT 1 1/2SM BR VCSH BKN002 OVC015
      TEMPO 0404/0406 3/4SM BR OVC002
     FM041000 VRB02KT 3SM BR VCSH SCT005 OVC015
     FM041300 22003KT 6SM BR SCT015 OVC025
     FM041400 24010G20KT P6SM SCT050 BKN090
     FM042100 24010KT 5SM -SHRA BR OVC040=



000
FTUS44 KMRX 040418 AAB
TAFTRI
TAF AMD
KTRI 040418Z 0404/0424 00000KT 1 1/2SM BR VCSH BKN002 OVC015
      TEMPO 0404/0406 3/4SM BR OVC002
     FM041000 VRB02KT 3SM BR VCSH SCT005 OVC015
     FM041300 22003KT 6SM BR SCT015 OVC025
     FM041400 24010G20KT P6SM SCT050 BKN090
     FM042100 24010KT 5SM -SHRA BR OVC040=



000
FTUS44 KMRX 040418 AAB
TAFTRI
TAF AMD
KTRI 040418Z 0404/0424 00000KT 1 1/2SM BR VCSH BKN002 OVC015
      TEMPO 0404/0406 3/4SM BR OVC002
     FM041000 VRB02KT 3SM BR VCSH SCT005 OVC015
     FM041300 22003KT 6SM BR SCT015 OVC025
     FM041400 24010G20KT P6SM SCT050 BKN090
     FM042100 24010KT 5SM -SHRA BR OVC040=



000
FTUS44 KMRX 040416 AAA
TAFCHA
TAF AMD
KCHA 040416Z 0404/0424 00000KT 2SM BR OVC004
      TEMPO 0404/0408 3/4SM BR OVC002
     FM041200 18003KT 6SM BR VCSH BKN035 OVC070
     FM041400 20008G20KT P6SM SCT030 BKN060
     FM042000 22010KT 4SM -SHRA BR OVC040=



000
FTUS44 KMRX 040416 AAA
TAFCHA
TAF AMD
KCHA 040416Z 0404/0424 00000KT 2SM BR OVC004
      TEMPO 0404/0408 3/4SM BR OVC002
     FM041200 18003KT 6SM BR VCSH BKN035 OVC070
     FM041400 20008G20KT P6SM SCT030 BKN060
     FM042000 22010KT 4SM -SHRA BR OVC040=



000
FTUS44 KMRX 040306 AAA
TAFTRI
TAF AMD
KTRI 040306Z 0403/0424 VRB03KT 3SM BR VCSH SCT015 OVC020
      TEMPO 0403/0406 1SM BR OVC015
     FM040600 VRB03KT 6SM BR SCT015 OVC025
     FM041200 24010G20KT P6SM SCT050 BKN090
     FM042100 24010KT 5SM -SHRA BR OVC040=



000
FTUS44 KMRX 040306 AAA
TAFTRI
TAF AMD
KTRI 040306Z 0403/0424 VRB03KT 3SM BR VCSH SCT015 OVC020
      TEMPO 0403/0406 1SM BR OVC015
     FM040600 VRB03KT 6SM BR SCT015 OVC025
     FM041200 24010G20KT P6SM SCT050 BKN090
     FM042100 24010KT 5SM -SHRA BR OVC040=



000
FTUS44 KMRX 040304 AAA
TAFTYS
TAF AMD
KTYS 040304Z 0403/0424 VRB04KT 4SM BR VCSH SCT004 OVC010
      TEMPO 0403/0406 2SM BR OVC004
     FM040700 22012KT 6SM BR SCT015 BKN035
     FM041200 23014G22KT P6SM SCT035 SCT050 BKN080
     FM042000 25012KT 4SM -SHRA BR OVC035=



000
FTUS44 KMRX 032335
TAFTRI
TAF
KTRI 032335Z 0400/0424 VRB03KT P6SM VCSH SCT025 OVC040
      TEMPO 0401/0405 5SM -RA BR OVC025
     FM040600 VRB05KT P6SM SCT035 OVC070
     FM041200 24010G20KT P6SM SCT050 BKN090
     FM042100 24010KT 5SM -SHRA BR OVC040=



000
FTUS44 KMRX 032335
TAFTYS
TAF
KTYS 032335Z 0400/0424 VRB04KT 5SM -RA BR SCT007 BKN015 OVC025
      TEMPO 0400/0404 2SM -RA BR OVC007
     FM040800 22012KT 6SM BR VCSH SCT025 BKN070
     FM041200 23014G22KT P6SM SCT035 SCT050 BKN080
     FM042000 25012KT 4SM -SHRA BR OVC035=



000
FTUS44 KMRX 032335
TAFTYS
TAF
KTYS 032335Z 0400/0424 VRB04KT 5SM -RA BR SCT007 BKN015 OVC025
      TEMPO 0400/0404 2SM -RA BR OVC007
     FM040800 22012KT 6SM BR VCSH SCT025 BKN070
     FM041200 23014G22KT P6SM SCT035 SCT050 BKN080
     FM042000 25012KT 4SM -SHRA BR OVC035=



000
FTUS44 KMRX 032335
TAFCHA
TAF
KCHA 032335Z 0400/0424 18005KT 5SM -RA BR SCT007 OVC015
      TEMPO 0400/0404 2SM -RA BR OVC007
     FM040500 18006KT 6SM BR VCSH BKN035 OVC070
     FM041200 20008G20KT P6SM SCT030 BKN060
     FM042000 22010KT 4SM -SHRA BR OVC040=



000
FTUS44 KMRX 032335
TAFCHA
TAF
KCHA 032335Z 0400/0424 18005KT 5SM -RA BR SCT007 OVC015
      TEMPO 0400/0404 2SM -RA BR OVC007
     FM040500 18006KT 6SM BR VCSH BKN035 OVC070
     FM041200 20008G20KT P6SM SCT030 BKN060
     FM042000 22010KT 4SM -SHRA BR OVC040=



000
FTUS44 KMRX 032335
TAFTRI
TAF
KTRI 032335Z 0400/0424 VRB03KT P6SM VCSH SCT025 OVC040
      TEMPO 0401/0405 5SM -RA BR OVC025
     FM040600 VRB05KT P6SM SCT035 OVC070
     FM041200 24010G20KT P6SM SCT050 BKN090
     FM042100 24010KT 5SM -SHRA BR OVC040=



000
FTUS44 KMRX 032335
TAFTRI
TAF
KTRI 032335Z 0400/0424 VRB03KT P6SM VCSH SCT025 OVC040
      TEMPO 0401/0405 5SM -RA BR OVC025
     FM040600 VRB05KT P6SM SCT035 OVC070
     FM041200 24010G20KT P6SM SCT050 BKN090
     FM042100 24010KT 5SM -SHRA BR OVC040=



000
FTUS44 KMRX 032335
TAFTRI
TAF
KTRI 032335Z 0400/0424 VRB03KT P6SM VCSH SCT025 OVC040
      TEMPO 0401/0405 5SM -RA BR OVC025
     FM040600 VRB05KT P6SM SCT035 OVC070
     FM041200 24010G20KT P6SM SCT050 BKN090
     FM042100 24010KT 5SM -SHRA BR OVC040=



000
FTUS44 KMRX 032335
TAFTYS
TAF
KTYS 032335Z 0400/0424 VRB04KT 5SM -RA BR SCT007 BKN015 OVC025
      TEMPO 0400/0404 2SM -RA BR OVC007
     FM040800 22012KT 6SM BR VCSH SCT025 BKN070
     FM041200 23014G22KT P6SM SCT035 SCT050 BKN080
     FM042000 25012KT 4SM -SHRA BR OVC035=



000
FTUS44 KMRX 032335
TAFTYS
TAF
KTYS 032335Z 0400/0424 VRB04KT 5SM -RA BR SCT007 BKN015 OVC025
      TEMPO 0400/0404 2SM -RA BR OVC007
     FM040800 22012KT 6SM BR VCSH SCT025 BKN070
     FM041200 23014G22KT P6SM SCT035 SCT050 BKN080
     FM042000 25012KT 4SM -SHRA BR OVC035=



000
FTUS44 KMRX 032335
TAFCHA
TAF
KCHA 032335Z 0400/0424 18005KT 5SM -RA BR SCT007 OVC015
      TEMPO 0400/0404 2SM -RA BR OVC007
     FM040500 18006KT 6SM BR VCSH BKN035 OVC070
     FM041200 20008G20KT P6SM SCT030 BKN060
     FM042000 22010KT 4SM -SHRA BR OVC040=



000
FTUS44 KMRX 032335
TAFCHA
TAF
KCHA 032335Z 0400/0424 18005KT 5SM -RA BR SCT007 OVC015
      TEMPO 0400/0404 2SM -RA BR OVC007
     FM040500 18006KT 6SM BR VCSH BKN035 OVC070
     FM041200 20008G20KT P6SM SCT030 BKN060
     FM042000 22010KT 4SM -SHRA BR OVC040=



000
FTUS44 KMRX 032219 AAA
TAFTYS
TAF AMD
KTYS 032219Z 0322/0418 30004KT 2SM -RA BR OVC015
     FM032300 VRB03KT 6SM BR SCT010 OVC020
     FM040100 22008KT 3SM -SHRA BR BKN007 OVC015 WS020/22045KT
     FM040800 23010G17KT P6SM VCSH SCT010 OVC025 WS020/22045KT
     FM041200 23010G20KT 4SM -SHRA BR OVC015
     FM041500 22014G25KT 4SM BR VCSH OVC015=



000
FTUS44 KMRX 032142 AAA
TAFTRI
TAF AMD
KTRI 032142Z 0322/0418 VRB03KT P6SM VCSH OVC030
      TEMPO 0322/0402 SCT030 BKN040
     FM040300 VRB03KT 3SM -SHRA BR OVC025 WS020/23040KT
     FM041000 20005KT 5SM BR VCSH SCT020 BKN030 WS020/23040KT
     FM041200 21004KT 4SM -RA BR OVC007
     FM041500 24007KT 6SM BR VCSH OVC015=



000
FTUS44 KMRX 032142 AAA
TAFTRI
TAF AMD
KTRI 032142Z 0322/0418 VRB03KT P6SM VCSH OVC030
      TEMPO 0322/0402 SCT030 BKN040
     FM040300 VRB03KT 3SM -SHRA BR OVC025 WS020/23040KT
     FM041000 20005KT 5SM BR VCSH SCT020 BKN030 WS020/23040KT
     FM041200 21004KT 4SM -RA BR OVC007
     FM041500 24007KT 6SM BR VCSH OVC015=



000
FTUS44 KMRX 032142 AAA
TAFTRI
TAF AMD
KTRI 032142Z 0322/0418 VRB03KT P6SM VCSH OVC030
      TEMPO 0322/0402 SCT030 BKN040
     FM040300 VRB03KT 3SM -SHRA BR OVC025 WS020/23040KT
     FM041000 20005KT 5SM BR VCSH SCT020 BKN030 WS020/23040KT
     FM041200 21004KT 4SM -RA BR OVC007
     FM041500 24007KT 6SM BR VCSH OVC015=



000
FTUS44 KMRX 032142 AAA
TAFTRI
TAF AMD
KTRI 032142Z 0322/0418 VRB03KT P6SM VCSH OVC030
      TEMPO 0322/0402 SCT030 BKN040
     FM040300 VRB03KT 3SM -SHRA BR OVC025 WS020/23040KT
     FM041000 20005KT 5SM BR VCSH SCT020 BKN030 WS020/23040KT
     FM041200 21004KT 4SM -RA BR OVC007
     FM041500 24007KT 6SM BR VCSH OVC015=



000
FTUS44 KMRX 031728
TAFTYS
TAF
KTYS 031728Z 0318/0418 VRB04KT P6SM SCT010 OVC020
     FM040100 22008KT 3SM -SHRA BR BKN007 OVC015 WS020/22045KT
     FM040800 23010G17KT P6SM VCSH SCT010 OVC025 WS020/22045KT
     FM041200 23010G20KT 4SM -SHRA BR OVC015
     FM041500 22014G25KT 4SM BR VCSH OVC015=



000
FTUS44 KMRX 031728
TAFTRI
TAF
KTRI 031728Z 0318/0418 VRB03KT P6SM OVC025
     FM031900 VRB03KT 5SM -DZ BR OVC015
     FM032100 19005KT 3SM -DZ BR OVC009
     FM040100 VRB03KT 3SM -SHRA BR OVC007 WS020/23040KT
     FM041000 20005KT 5SM BR VCSH SCT010 OVC025 WS020/23040KT
     FM041200 21004KT 4SM -RA BR OVC007
     FM041500 24007KT 6SM BR VCSH OVC015=



000
FTUS44 KMRX 031728
TAFTRI
TAF
KTRI 031728Z 0318/0418 VRB03KT P6SM OVC025
     FM031900 VRB03KT 5SM -DZ BR OVC015
     FM032100 19005KT 3SM -DZ BR OVC009
     FM040100 VRB03KT 3SM -SHRA BR OVC007 WS020/23040KT
     FM041000 20005KT 5SM BR VCSH SCT010 OVC025 WS020/23040KT
     FM041200 21004KT 4SM -RA BR OVC007
     FM041500 24007KT 6SM BR VCSH OVC015=



000
FTUS44 KMRX 031728
TAFCHA
TAF
KCHA 031728Z 0318/0418 18005KT 3SM BR SCT005 OVC012
      TEMPO 0318/0321 2SM -DZ BR BKN005 OVC012
     FM032100 18005KT 2SM BR VCSH OVC007
     FM040100 19005KT 2SM -SHRA BR OVC007 WS020/21040KT
     FM040800 21005KT 3SM -SHRA BR OVC010 WS020/22040KT
     FM041200 20004KT 4SM BR VCSH OVC007
     FM041500 20006KT 4SM BR OVC015=



000
FTUS44 KMRX 031728
TAFTYS
TAF
KTYS 031728Z 0318/0418 VRB04KT P6SM SCT010 OVC020
     FM040100 22008KT 3SM -SHRA BR BKN007 OVC015 WS020/22045KT
     FM040800 23010G17KT P6SM VCSH SCT010 OVC025 WS020/22045KT
     FM041200 23010G20KT 4SM -SHRA BR OVC015
     FM041500 22014G25KT 4SM BR VCSH OVC015=



000
FTUS44 KMRX 031728
TAFTRI
TAF
KTRI 031728Z 0318/0418 VRB03KT P6SM OVC025
     FM031900 VRB03KT 5SM -DZ BR OVC015
     FM032100 19005KT 3SM -DZ BR OVC009
     FM040100 VRB03KT 3SM -SHRA BR OVC007 WS020/23040KT
     FM041000 20005KT 5SM BR VCSH SCT010 OVC025 WS020/23040KT
     FM041200 21004KT 4SM -RA BR OVC007
     FM041500 24007KT 6SM BR VCSH OVC015=



000
FTUS44 KMRX 031728
TAFTYS
TAF
KTYS 031728Z 0318/0418 VRB04KT P6SM SCT010 OVC020
     FM040100 22008KT 3SM -SHRA BR BKN007 OVC015 WS020/22045KT
     FM040800 23010G17KT P6SM VCSH SCT010 OVC025 WS020/22045KT
     FM041200 23010G20KT 4SM -SHRA BR OVC015
     FM041500 22014G25KT 4SM BR VCSH OVC015=



000
FTUS44 KMRX 031728
TAFCHA
TAF
KCHA 031728Z 0318/0418 18005KT 3SM BR SCT005 OVC012
      TEMPO 0318/0321 2SM -DZ BR BKN005 OVC012
     FM032100 18005KT 2SM BR VCSH OVC007
     FM040100 19005KT 2SM -SHRA BR OVC007 WS020/21040KT
     FM040800 21005KT 3SM -SHRA BR OVC010 WS020/22040KT
     FM041200 20004KT 4SM BR VCSH OVC007
     FM041500 20006KT 4SM BR OVC015=



000
FTUS44 KMRX 031728
TAFTRI
TAF
KTRI 031728Z 0318/0418 VRB03KT P6SM OVC025
     FM031900 VRB03KT 5SM -DZ BR OVC015
     FM032100 19005KT 3SM -DZ BR OVC009
     FM040100 VRB03KT 3SM -SHRA BR OVC007 WS020/23040KT
     FM041000 20005KT 5SM BR VCSH SCT010 OVC025 WS020/23040KT
     FM041200 21004KT 4SM -RA BR OVC007
     FM041500 24007KT 6SM BR VCSH OVC015=



000
FTUS44 KMRX 031728
TAFTYS
TAF
KTYS 031728Z 0318/0418 VRB04KT P6SM SCT010 OVC020
     FM040100 22008KT 3SM -SHRA BR BKN007 OVC015 WS020/22045KT
     FM040800 23010G17KT P6SM VCSH SCT010 OVC025 WS020/22045KT
     FM041200 23010G20KT 4SM -SHRA BR OVC015
     FM041500 22014G25KT 4SM BR VCSH OVC015=



000
FTUS44 KMRX 031728
TAFCHA
TAF
KCHA 031728Z 0318/0418 18005KT 3SM BR SCT005 OVC012
      TEMPO 0318/0321 2SM -DZ BR BKN005 OVC012
     FM032100 18005KT 2SM BR VCSH OVC007
     FM040100 19005KT 2SM -SHRA BR OVC007 WS020/21040KT
     FM040800 21005KT 3SM -SHRA BR OVC010 WS020/22040KT
     FM041200 20004KT 4SM BR VCSH OVC007
     FM041500 20006KT 4SM BR OVC015=



000
FTUS44 KMRX 031504 AAC
TAFCHA
TAF AMD
KCHA 031504Z 0315/0412 VRB03KT 2SM BR OVC009
      TEMPO 0315/0318 1SM -DZ BR BKN003 OVC009
     FM032100 15004KT 6SM -SHRA BR BKN007 OVC015
     FM040100 19005KT 3SM -SHRA BR BKN007 OVC015 WS020/21040KT
     FM040800 20005KT 6SM BR VCSH SCT007 OVC015 WS020/22040KT=



000
FTUS44 KMRX 031352 AAA
TAFTRI
TAF AMD
KTRI 031352Z 0314/0412 VRB03KT P6SM OVC030
      TEMPO 0314/0316 5SM -RA BR OVC020
     FM031600 VRB03KT 6SM -SHRA BR OVC025
     FM031900 VRB03KT 6SM -SHRA BR OVC015
     FM040100 VRB03KT 3SM -SHRA BR SCT007 OVC015 WS020/23040KT
     FM041000 20005KT 6SM BR VCSH SCT010 OVC025 WS020/23040KT=



000
FTUS44 KMRX 031352 AAA
TAFTRI
TAF AMD
KTRI 031352Z 0314/0412 VRB03KT P6SM OVC030
      TEMPO 0314/0316 5SM -RA BR OVC020
     FM031600 VRB03KT 6SM -SHRA BR OVC025
     FM031900 VRB03KT 6SM -SHRA BR OVC015
     FM040100 VRB03KT 3SM -SHRA BR SCT007 OVC015 WS020/23040KT
     FM041000 20005KT 6SM BR VCSH SCT010 OVC025 WS020/23040KT=



000
FTUS44 KMRX 031352 AAA
TAFTRI
TAF AMD
KTRI 031352Z 0314/0412 VRB03KT P6SM OVC030
      TEMPO 0314/0316 5SM -RA BR OVC020
     FM031600 VRB03KT 6SM -SHRA BR OVC025
     FM031900 VRB03KT 6SM -SHRA BR OVC015
     FM040100 VRB03KT 3SM -SHRA BR SCT007 OVC015 WS020/23040KT
     FM041000 20005KT 6SM BR VCSH SCT010 OVC025 WS020/23040KT=



000
FTUS44 KMRX 031352 AAA
TAFTRI
TAF AMD
KTRI 031352Z 0314/0412 VRB03KT P6SM OVC030
      TEMPO 0314/0316 5SM -RA BR OVC020
     FM031600 VRB03KT 6SM -SHRA BR OVC025
     FM031900 VRB03KT 6SM -SHRA BR OVC015
     FM040100 VRB03KT 3SM -SHRA BR SCT007 OVC015 WS020/23040KT
     FM041000 20005KT 6SM BR VCSH SCT010 OVC025 WS020/23040KT=



000
FTUS44 KMRX 031306 AAB
TAFCHA
TAF AMD
KCHA 031306Z 0313/0412 VRB03KT 3SM BR VCSH OVC012
      TEMPO 0313/0315 1SM -DZ BR BKN004 OVC009
     FM031500 15004KT 6SM -SHRA BR BKN007 OVC015
     FM040100 19005KT 3SM -SHRA BR BKN007 OVC015 WS020/21040KT
     FM040800 20005KT 6SM BR VCSH SCT007 OVC015 WS020/22040KT=



000
FTUS44 KMRX 031306 AAB
TAFCHA
TAF AMD
KCHA 031306Z 0313/0412 VRB03KT 3SM BR VCSH OVC012
      TEMPO 0313/0315 1SM -DZ BR BKN004 OVC009
     FM031500 15004KT 6SM -SHRA BR BKN007 OVC015
     FM040100 19005KT 3SM -SHRA BR BKN007 OVC015 WS020/21040KT
     FM040800 20005KT 6SM BR VCSH SCT007 OVC015 WS020/22040KT=



000
FTUS44 KMRX 031205 AAA
TAFCHA
TAF AMD
KCHA 031205Z 0312/0412 VRB03KT 3SM BR VCSH OVC015
      TEMPO 0312/0314 1SM -RA BR BKN007 OVC015
     FM031400 15004KT 6SM -SHRA BR BKN007 OVC015
     FM040100 19005KT 3SM -SHRA BR BKN007 OVC015 WS020/21040KT
     FM040800 20005KT 6SM BR VCSH SCT007 OVC015 WS020/22040KT=



000
FTUS44 KMRX 031205 AAA
TAFCHA
TAF AMD
KCHA 031205Z 0312/0412 VRB03KT 3SM BR VCSH OVC015
      TEMPO 0312/0314 1SM -RA BR BKN007 OVC015
     FM031400 15004KT 6SM -SHRA BR BKN007 OVC015
     FM040100 19005KT 3SM -SHRA BR BKN007 OVC015 WS020/21040KT
     FM040800 20005KT 6SM BR VCSH SCT007 OVC015 WS020/22040KT=



000
FTUS44 KMRX 031205 AAA
TAFCHA
TAF AMD
KCHA 031205Z 0312/0412 VRB03KT 3SM BR VCSH OVC015
      TEMPO 0312/0314 1SM -RA BR BKN007 OVC015
     FM031400 15004KT 6SM -SHRA BR BKN007 OVC015
     FM040100 19005KT 3SM -SHRA BR BKN007 OVC015 WS020/21040KT
     FM040800 20005KT 6SM BR VCSH SCT007 OVC015 WS020/22040KT=



000
FTUS44 KMRX 031205 AAA
TAFCHA
TAF AMD
KCHA 031205Z 0312/0412 VRB03KT 3SM BR VCSH OVC015
      TEMPO 0312/0314 1SM -RA BR BKN007 OVC015
     FM031400 15004KT 6SM -SHRA BR BKN007 OVC015
     FM040100 19005KT 3SM -SHRA BR BKN007 OVC015 WS020/21040KT
     FM040800 20005KT 6SM BR VCSH SCT007 OVC015 WS020/22040KT=



000
FTUS44 KMRX 031126
TAFTRI
TAF
KTRI 031126Z 0312/0412 VRB03KT P6SM VCSH OVC035
     FM031430 VRB03KT 6SM -SHRA BR OVC025
     FM031900 VRB03KT 6SM -SHRA BR OVC015
     FM040100 VRB03KT 3SM -SHRA BR SCT007 OVC015 WS020/23040KT
     FM041000 20005KT 6SM BR VCSH SCT010 OVC025 WS020/23040KT=



000
FTUS44 KMRX 031126
TAFCHA
TAF
KCHA 031126Z 0312/0412 VRB03KT P6SM VCSH OVC015
     FM031400 15004KT 6SM -SHRA BR BKN007 OVC015
     FM040100 19005KT 3SM -SHRA BR BKN007 OVC015 WS020/21040KT
     FM040800 20005KT 6SM BR VCSH SCT007 OVC015 WS020/22040KT=



000
FTUS44 KMRX 031126
TAFTYS
TAF
KTYS 031126Z 0312/0412 VRB03KT P6SM VCSH OVC025
     FM031430 VRB04KT 6SM -SHRA BR SCT007 OVC015
     FM040100 22008KT 3SM -SHRA BR BKN007 OVC015 WS020/22045KT
     FM040800 23010G17KT P6SM VCSH SCT010 OVC025 WS020/22045KT=



000
FTUS44 KMRX 031126
TAFTYS
TAF
KTYS 031126Z 0312/0412 VRB03KT P6SM VCSH OVC025
     FM031430 VRB04KT 6SM -SHRA BR SCT007 OVC015
     FM040100 22008KT 3SM -SHRA BR BKN007 OVC015 WS020/22045KT
     FM040800 23010G17KT P6SM VCSH SCT010 OVC025 WS020/22045KT=



000
FTUS44 KMRX 031126
TAFTRI
TAF
KTRI 031126Z 0312/0412 VRB03KT P6SM VCSH OVC035
     FM031430 VRB03KT 6SM -SHRA BR OVC025
     FM031900 VRB03KT 6SM -SHRA BR OVC015
     FM040100 VRB03KT 3SM -SHRA BR SCT007 OVC015 WS020/23040KT
     FM041000 20005KT 6SM BR VCSH SCT010 OVC025 WS020/23040KT=



000
FTUS44 KMRX 031126
TAFCHA
TAF
KCHA 031126Z 0312/0412 VRB03KT P6SM VCSH OVC015
     FM031400 15004KT 6SM -SHRA BR BKN007 OVC015
     FM040100 19005KT 3SM -SHRA BR BKN007 OVC015 WS020/21040KT
     FM040800 20005KT 6SM BR VCSH SCT007 OVC015 WS020/22040KT=



000
FTUS44 KMRX 031126
TAFTYS
TAF
KTYS 031126Z 0312/0412 VRB03KT P6SM VCSH OVC025
     FM031430 VRB04KT 6SM -SHRA BR SCT007 OVC015
     FM040100 22008KT 3SM -SHRA BR BKN007 OVC015 WS020/22045KT
     FM040800 23010G17KT P6SM VCSH SCT010 OVC025 WS020/22045KT=



000
FTUS44 KMRX 031126
TAFCHA
TAF
KCHA 031126Z 0312/0412 VRB03KT P6SM VCSH OVC015
     FM031400 15004KT 6SM -SHRA BR BKN007 OVC015
     FM040100 19005KT 3SM -SHRA BR BKN007 OVC015 WS020/21040KT
     FM040800 20005KT 6SM BR VCSH SCT007 OVC015 WS020/22040KT=



000
FTUS44 KMRX 031126
TAFTRI
TAF
KTRI 031126Z 0312/0412 VRB03KT P6SM VCSH OVC035
     FM031430 VRB03KT 6SM -SHRA BR OVC025
     FM031900 VRB03KT 6SM -SHRA BR OVC015
     FM040100 VRB03KT 3SM -SHRA BR SCT007 OVC015 WS020/23040KT
     FM041000 20005KT 6SM BR VCSH SCT010 OVC025 WS020/23040KT=



000
FTUS44 KMRX 031126
TAFTRI
TAF
KTRI 031126Z 0312/0412 VRB03KT P6SM VCSH OVC035
     FM031430 VRB03KT 6SM -SHRA BR OVC025
     FM031900 VRB03KT 6SM -SHRA BR OVC015
     FM040100 VRB03KT 3SM -SHRA BR SCT007 OVC015 WS020/23040KT
     FM041000 20005KT 6SM BR VCSH SCT010 OVC025 WS020/23040KT=



000
FTUS44 KMRX 031126
TAFCHA
TAF
KCHA 031126Z 0312/0412 VRB03KT P6SM VCSH OVC015
     FM031400 15004KT 6SM -SHRA BR BKN007 OVC015
     FM040100 19005KT 3SM -SHRA BR BKN007 OVC015 WS020/21040KT
     FM040800 20005KT 6SM BR VCSH SCT007 OVC015 WS020/22040KT=



000
FTUS44 KMRX 031126
TAFTYS
TAF
KTYS 031126Z 0312/0412 VRB03KT P6SM VCSH OVC025
     FM031430 VRB04KT 6SM -SHRA BR SCT007 OVC015
     FM040100 22008KT 3SM -SHRA BR BKN007 OVC015 WS020/22045KT
     FM040800 23010G17KT P6SM VCSH SCT010 OVC025 WS020/22045KT=



000
FTUS44 KMRX 030711 AAA
TAFCHA
TAF AMD
KCHA 030711Z 0307/0406 01006KT P6SM OVC025
     FM030900 VRB03KT P6SM VCSH OVC015
     FM031400 15004KT 5SM -RA BR SCT007 OVC015
     FM040100 19005KT 3SM -RA BR SCT005 OVC010 WS020/22040KT=



000
FTUS44 KMRX 030711 AAA
TAFCHA
TAF AMD
KCHA 030711Z 0307/0406 01006KT P6SM OVC025
     FM030900 VRB03KT P6SM VCSH OVC015
     FM031400 15004KT 5SM -RA BR SCT007 OVC015
     FM040100 19005KT 3SM -RA BR SCT005 OVC010 WS020/22040KT=



000
FTUS44 KMRX 030711 AAA
TAFCHA
TAF AMD
KCHA 030711Z 0307/0406 01006KT P6SM OVC025
     FM030900 VRB03KT P6SM VCSH OVC015
     FM031400 15004KT 5SM -RA BR SCT007 OVC015
     FM040100 19005KT 3SM -RA BR SCT005 OVC010 WS020/22040KT=



000
FTUS44 KMRX 030711 AAA
TAFCHA
TAF AMD
KCHA 030711Z 0307/0406 01006KT P6SM OVC025
     FM030900 VRB03KT P6SM VCSH OVC015
     FM031400 15004KT 5SM -RA BR SCT007 OVC015
     FM040100 19005KT 3SM -RA BR SCT005 OVC010 WS020/22040KT=



000
FTUS44 KMRX 030532
TAFTRI
TAF
KTRI 030532Z 0306/0406 VRB03KT P6SM FEW050 OVC150
     FM030800 00000KT P6SM VCSH OVC035
     FM031500 VRB03KT 5SM -RA BR OVC025
     FM040100 VRB03KT 3SM -RA BR SCT005 OVC015 WS020/23040KT=



000
FTUS44 KMRX 030532
TAFCHA
TAF
KCHA 030532Z 0306/0406 01006KT P6SM VCSH SCT035 OVC060
     FM030900 VRB03KT P6SM VCSH OVC015
     FM031400 15004KT 5SM -RA BR SCT007 OVC015
     FM040100 19005KT 3SM -RA BR SCT005 OVC010 WS020/22040KT=



000
FTUS44 KMRX 030532
TAFTYS
TAF
KTYS 030532Z 0306/0406 03005KT P6SM SCT035 BKN060
     FM030900 VRB03KT P6SM VCSH SCT015 OVC035
     FM031200 VRB03KT P6SM VCSH OVC025
     FM031800 VRB04KT 5SM -RA BR SCT007 OVC015
     FM040100 22008KT 3SM -RA BR SCT005 OVC010 WS020/22045KT=



000
FTUS44 KMRX 030532
TAFTYS
TAF
KTYS 030532Z 0306/0406 03005KT P6SM SCT035 BKN060
     FM030900 VRB03KT P6SM VCSH SCT015 OVC035
     FM031200 VRB03KT P6SM VCSH OVC025
     FM031800 VRB04KT 5SM -RA BR SCT007 OVC015
     FM040100 22008KT 3SM -RA BR SCT005 OVC010 WS020/22045KT=



000
FTUS44 KMRX 030532
TAFCHA
TAF
KCHA 030532Z 0306/0406 01006KT P6SM VCSH SCT035 OVC060
     FM030900 VRB03KT P6SM VCSH OVC015
     FM031400 15004KT 5SM -RA BR SCT007 OVC015
     FM040100 19005KT 3SM -RA BR SCT005 OVC010 WS020/22040KT=



000
FTUS44 KMRX 030532
TAFTRI
TAF
KTRI 030532Z 0306/0406 VRB03KT P6SM FEW050 OVC150
     FM030800 00000KT P6SM VCSH OVC035
     FM031500 VRB03KT 5SM -RA BR OVC025
     FM040100 VRB03KT 3SM -RA BR SCT005 OVC015 WS020/23040KT=



000
FTUS44 KMRX 030532
TAFTRI
TAF
KTRI 030532Z 0306/0406 VRB03KT P6SM FEW050 OVC150
     FM030800 00000KT P6SM VCSH OVC035
     FM031500 VRB03KT 5SM -RA BR OVC025
     FM040100 VRB03KT 3SM -RA BR SCT005 OVC015 WS020/23040KT=



000
FTUS44 KMRX 030532
TAFTYS
TAF
KTYS 030532Z 0306/0406 03005KT P6SM SCT035 BKN060
     FM030900 VRB03KT P6SM VCSH SCT015 OVC035
     FM031200 VRB03KT P6SM VCSH OVC025
     FM031800 VRB04KT 5SM -RA BR SCT007 OVC015
     FM040100 22008KT 3SM -RA BR SCT005 OVC010 WS020/22045KT=



000
FTUS44 KMRX 030532
TAFCHA
TAF
KCHA 030532Z 0306/0406 01006KT P6SM VCSH SCT035 OVC060
     FM030900 VRB03KT P6SM VCSH OVC015
     FM031400 15004KT 5SM -RA BR SCT007 OVC015
     FM040100 19005KT 3SM -RA BR SCT005 OVC010 WS020/22040KT=



000
FTUS44 KMRX 030532
TAFCHA
TAF
KCHA 030532Z 0306/0406 01006KT P6SM VCSH SCT035 OVC060
     FM030900 VRB03KT P6SM VCSH OVC015
     FM031400 15004KT 5SM -RA BR SCT007 OVC015
     FM040100 19005KT 3SM -RA BR SCT005 OVC010 WS020/22040KT=



000
FTUS44 KMRX 030532
TAFTRI
TAF
KTRI 030532Z 0306/0406 VRB03KT P6SM FEW050 OVC150
     FM030800 00000KT P6SM VCSH OVC035
     FM031500 VRB03KT 5SM -RA BR OVC025
     FM040100 VRB03KT 3SM -RA BR SCT005 OVC015 WS020/23040KT=



000
FTUS44 KMRX 030532
TAFTYS
TAF
KTYS 030532Z 0306/0406 03005KT P6SM SCT035 BKN060
     FM030900 VRB03KT P6SM VCSH SCT015 OVC035
     FM031200 VRB03KT P6SM VCSH OVC025
     FM031800 VRB04KT 5SM -RA BR SCT007 OVC015
     FM040100 22008KT 3SM -RA BR SCT005 OVC010 WS020/22045KT=



000
FTUS44 KMRX 022320
TAFTRI
TAF
KTRI 022320Z 0300/0324 01005KT P6SM FEW020
     FM030800 00000KT 4SM BR OVC030
     FM031500 00000KT 5SM -RA BR OVC030=



000
FTUS44 KMRX 022320
TAFTYS
TAF
KTYS 022320Z 0300/0324 03005KT P6SM SCT020 BKN150
     FM031200 03003KT 4SM BR OVC015
     FM031500 00000KT 5SM -RA BR OVC010=



000
FTUS44 KMRX 022320
TAFCHA
TAF
KCHA 022320Z 0300/0324 01010KT P6SM SCT100
     FM030600 VRB03KT 4SM BR OVC015
     FM031400 15004KT 5SM -RA BR OVC010=



000
FTUS44 KMRX 022320
TAFCHA
TAF
KCHA 022320Z 0300/0324 01010KT P6SM SCT100
     FM030600 VRB03KT 4SM BR OVC015
     FM031400 15004KT 5SM -RA BR OVC010=



000
FTUS44 KMRX 022320
TAFTRI
TAF
KTRI 022320Z 0300/0324 01005KT P6SM FEW020
     FM030800 00000KT 4SM BR OVC030
     FM031500 00000KT 5SM -RA BR OVC030=



000
FTUS44 KMRX 022320
TAFTYS
TAF
KTYS 022320Z 0300/0324 03005KT P6SM SCT020 BKN150
     FM031200 03003KT 4SM BR OVC015
     FM031500 00000KT 5SM -RA BR OVC010=



000
FTUS44 KMRX 022024 AAA
TAFTYS
TAF AMD
KTYS 022024Z 0220/0318 03005KT P6SM BKN020
     FM030700 03003KT 4SM -RA BR BKN007 OVC035
     FM031000 00000KT 2SM -RA BR BKN005=



000
FTUS44 KMRX 022024 AAA
TAFTYS
TAF AMD
KTYS 022024Z 0220/0318 03005KT P6SM BKN020
     FM030700 03003KT 4SM -RA BR BKN007 OVC035
     FM031000 00000KT 2SM -RA BR BKN005=



000
FTUS44 KMRX 021720
TAFTYS
TAF
KTYS 021720Z 0218/0318 02008KT P6SM BKN015
     FM022000 03005KT P6SM BKN035
     FM030700 03003KT 4SM -RA BR BKN007 OVC035
     FM031000 00000KT 2SM -RA BR BKN005=



000
FTUS44 KMRX 021720
TAFCHA
TAF
KCHA 021720Z 0218/0318 01010KT P6SM OVC025
     FM030600 VRB03KT 4SM -RA BR BKN007 OVC015
     FM031400 15004KT 2SM -RA BR OVC005
     FM031600 17005KT 4SM -RA BR OVC007=



000
FTUS44 KMRX 021720
TAFTRI
TAF
KTRI 021720Z 0218/0318 01008KT P6SM BKN020
     FM022000 01005KT P6SM SCT250
     FM030800 00000KT 4SM -RA BR OVC025
     FM031200 00000KT 2SM -RA BR OVC010
     FM031600 00000KT 4SM -RA BR OVC010=



000
FTUS44 KMRX 021720
TAFTYS
TAF
KTYS 021720Z 0218/0318 02008KT P6SM BKN015
     FM022000 03005KT P6SM BKN035
     FM030700 03003KT 4SM -RA BR BKN007 OVC035
     FM031000 00000KT 2SM -RA BR BKN005=



000
FTUS44 KMRX 021720
TAFCHA
TAF
KCHA 021720Z 0218/0318 01010KT P6SM OVC025
     FM030600 VRB03KT 4SM -RA BR BKN007 OVC015
     FM031400 15004KT 2SM -RA BR OVC005
     FM031600 17005KT 4SM -RA BR OVC007=



000
FTUS44 KMRX 021720
TAFTRI
TAF
KTRI 021720Z 0218/0318 01008KT P6SM BKN020
     FM022000 01005KT P6SM SCT250
     FM030800 00000KT 4SM -RA BR OVC025
     FM031200 00000KT 2SM -RA BR OVC010
     FM031600 00000KT 4SM -RA BR OVC010=



000
FTUS44 KMRX 021513 AAA
TAFCHA
TAF AMD
KCHA 021513Z 0215/0312 01005KT P6SM OVC025
     FM021900 02004KT P6SM BKN025
     FM030800 VRB03KT 4SM -RA BR BKN007 OVC015=



000
FTUS44 KMRX 021513 AAC
TAFTRI
TAF AMD
KTRI 021513Z 0215/0312 30006KT P6SM OVC015
     FM021700 36006KT P6SM BKN035
     FM021900 34005KT P6SM SCT250
     FM030400 00000KT P6SM BKN035
     FM030900 00000KT 4SM BR OVC025=



000
FTUS44 KMRX 021513 AAC
TAFTRI
TAF AMD
KTRI 021513Z 0215/0312 30006KT P6SM OVC015
     FM021700 36006KT P6SM BKN035
     FM021900 34005KT P6SM SCT250
     FM030400 00000KT P6SM BKN035
     FM030900 00000KT 4SM BR OVC025=



000
FTUS44 KMRX 021513 AAA
TAFCHA
TAF AMD
KCHA 021513Z 0215/0312 01005KT P6SM OVC025
     FM021900 02004KT P6SM BKN025
     FM030800 VRB03KT 4SM -RA BR BKN007 OVC015=



000
FTUS44 KMRX 021513 AAC
TAFTRI
TAF AMD
KTRI 021513Z 0215/0312 30006KT P6SM OVC015
     FM021700 36006KT P6SM BKN035
     FM021900 34005KT P6SM SCT250
     FM030400 00000KT P6SM BKN035
     FM030900 00000KT 4SM BR OVC025=



000
FTUS44 KMRX 021513 AAC
TAFTRI
TAF AMD
KTRI 021513Z 0215/0312 30006KT P6SM OVC015
     FM021700 36006KT P6SM BKN035
     FM021900 34005KT P6SM SCT250
     FM030400 00000KT P6SM BKN035
     FM030900 00000KT 4SM BR OVC025=



000
FTUS44 KMRX 021513 AAA
TAFCHA
TAF AMD
KCHA 021513Z 0215/0312 01005KT P6SM OVC025
     FM021900 02004KT P6SM BKN025
     FM030800 VRB03KT 4SM -RA BR BKN007 OVC015=



000
FTUS44 KMRX 021420 AAB
TAFTRI
TAF AMD
KTRI 021420Z 0214/0312 30006KT 4SM -RA BR BKN007 OVC015
     FM021700 36006KT P6SM BKN035
     FM021900 34005KT P6SM SCT250
     FM030400 00000KT P6SM BKN035
     FM030900 00000KT 4SM BR OVC025=



000
FTUS44 KMRX 021420 AAB
TAFTRI
TAF AMD
KTRI 021420Z 0214/0312 30006KT 4SM -RA BR BKN007 OVC015
     FM021700 36006KT P6SM BKN035
     FM021900 34005KT P6SM SCT250
     FM030400 00000KT P6SM BKN035
     FM030900 00000KT 4SM BR OVC025=



000
FTUS44 KMRX 021420 AAB
TAFTRI
TAF AMD
KTRI 021420Z 0214/0312 30006KT 4SM -RA BR BKN007 OVC015
     FM021700 36006KT P6SM BKN035
     FM021900 34005KT P6SM SCT250
     FM030400 00000KT P6SM BKN035
     FM030900 00000KT 4SM BR OVC025=



000
FTUS44 KMRX 021420 AAB
TAFTRI
TAF AMD
KTRI 021420Z 0214/0312 30006KT 4SM -RA BR BKN007 OVC015
     FM021700 36006KT P6SM BKN035
     FM021900 34005KT P6SM SCT250
     FM030400 00000KT P6SM BKN035
     FM030900 00000KT 4SM BR OVC025=



000
FTUS44 KMRX 021335 AAA
TAFTRI
TAF AMD
KTRI 021335Z 0214/0312 30006KT 4SM -RA BR BKN007 OVC015
     FM021500 36006KT P6SM BKN035
     FM021900 34005KT P6SM SCT250
     FM030400 00000KT P6SM BKN035
     FM030900 00000KT 4SM BR OVC025=



000
FTUS44 KMRX 021335 AAA
TAFTRI
TAF AMD
KTRI 021335Z 0214/0312 30006KT 4SM -RA BR BKN007 OVC015
     FM021500 36006KT P6SM BKN035
     FM021900 34005KT P6SM SCT250
     FM030400 00000KT P6SM BKN035
     FM030900 00000KT 4SM BR OVC025=



000
FTUS44 KMRX 021335 AAA
TAFTRI
TAF AMD
KTRI 021335Z 0214/0312 30006KT 4SM -RA BR BKN007 OVC015
     FM021500 36006KT P6SM BKN035
     FM021900 34005KT P6SM SCT250
     FM030400 00000KT P6SM BKN035
     FM030900 00000KT 4SM BR OVC025=



000
FTUS44 KMRX 021215 AAA
TAFTYS
TAF AMD
KTYS 021215Z 0212/0312 35006KT P6SM SCT007 OVC015
      TEMPO 0212/0214 5SM -RA BR OVC007
     FM021400 02008KT P6SM OVC015
     FM021800 02008KT P6SM BKN035
     FM030100 03004KT P6SM BKN080
     FM030900 VRB03KT 4SM -RA BR BKN015 OVC035=



000
FTUS44 KMRX 021215 AAA
TAFTYS
TAF AMD
KTYS 021215Z 0212/0312 35006KT P6SM SCT007 OVC015
      TEMPO 0212/0214 5SM -RA BR OVC007
     FM021400 02008KT P6SM OVC015
     FM021800 02008KT P6SM BKN035
     FM030100 03004KT P6SM BKN080
     FM030900 VRB03KT 4SM -RA BR BKN015 OVC035=



000
FTUS44 KMRX 021215 AAA
TAFTYS
TAF AMD
KTYS 021215Z 0212/0312 35006KT P6SM SCT007 OVC015
      TEMPO 0212/0214 5SM -RA BR OVC007
     FM021400 02008KT P6SM OVC015
     FM021800 02008KT P6SM BKN035
     FM030100 03004KT P6SM BKN080
     FM030900 VRB03KT 4SM -RA BR BKN015 OVC035=



000
FTUS44 KMRX 021124
TAFTRI
TAF
KTRI 021124Z 0212/0312 00000KT 2SM BR SCT007 OVC015
      TEMPO 0212/0214 3/4SM -RA BR BKN007 OVC015
     FM021400 31005KT P6SM OVC015
     FM021700 34006KT P6SM BKN035
     FM021900 34005KT P6SM SCT250
     FM030100 00000KT P6SM SCT200
     FM030400 00000KT P6SM BKN035
     FM030900 00000KT 4SM BR OVC025=



000
FTUS44 KMRX 021124
TAFTYS
TAF
KTYS 021124Z 0212/0312 27006KT 5SM BR BKN007 OVC015
      TEMPO 0212/0214 2SM -RA BR OVC004
     FM021400 02008KT P6SM OVC015
     FM021800 02008KT P6SM BKN035
     FM030100 03004KT P6SM BKN080
     FM030900 VRB03KT 4SM -RA BR BKN015 OVC035=



000
FTUS44 KMRX 021124
TAFCHA
TAF
KCHA 021124Z 0212/0312 01005KT 3SM BR SCT010 OVC020
      TEMPO 0212/0214 1SM -RA BR SCT007 OVC015
     FM021500 01008KT P6SM OVC015
     FM021900 02004KT P6SM BKN025
     FM030800 VRB03KT 4SM -RA BR BKN007 OVC015=



000
FTUS44 KMRX 021124
TAFTYS
TAF
KTYS 021124Z 0212/0312 27006KT 5SM BR BKN007 OVC015
      TEMPO 0212/0214 2SM -RA BR OVC004
     FM021400 02008KT P6SM OVC015
     FM021800 02008KT P6SM BKN035
     FM030100 03004KT P6SM BKN080
     FM030900 VRB03KT 4SM -RA BR BKN015 OVC035=



000
FTUS44 KMRX 021124
TAFCHA
TAF
KCHA 021124Z 0212/0312 01005KT 3SM BR SCT010 OVC020
      TEMPO 0212/0214 1SM -RA BR SCT007 OVC015
     FM021500 01008KT P6SM OVC015
     FM021900 02004KT P6SM BKN025
     FM030800 VRB03KT 4SM -RA BR BKN007 OVC015=



000
FTUS44 KMRX 021124
TAFCHA
TAF
KCHA 021124Z 0212/0312 01005KT 3SM BR SCT010 OVC020
      TEMPO 0212/0214 1SM -RA BR SCT007 OVC015
     FM021500 01008KT P6SM OVC015
     FM021900 02004KT P6SM BKN025
     FM030800 VRB03KT 4SM -RA BR BKN007 OVC015=



000
FTUS44 KMRX 021124
TAFTYS
TAF
KTYS 021124Z 0212/0312 27006KT 5SM BR BKN007 OVC015
      TEMPO 0212/0214 2SM -RA BR OVC004
     FM021400 02008KT P6SM OVC015
     FM021800 02008KT P6SM BKN035
     FM030100 03004KT P6SM BKN080
     FM030900 VRB03KT 4SM -RA BR BKN015 OVC035=



000
FTUS44 KMRX 021124
TAFTRI
TAF
KTRI 021124Z 0212/0312 00000KT 2SM BR SCT007 OVC015
      TEMPO 0212/0214 3/4SM -RA BR BKN007 OVC015
     FM021400 31005KT P6SM OVC015
     FM021700 34006KT P6SM BKN035
     FM021900 34005KT P6SM SCT250
     FM030100 00000KT P6SM SCT200
     FM030400 00000KT P6SM BKN035
     FM030900 00000KT 4SM BR OVC025=



000
FTUS44 KMRX 021124
TAFTRI
TAF
KTRI 021124Z 0212/0312 00000KT 2SM BR SCT007 OVC015
      TEMPO 0212/0214 3/4SM -RA BR BKN007 OVC015
     FM021400 31005KT P6SM OVC015
     FM021700 34006KT P6SM BKN035
     FM021900 34005KT P6SM SCT250
     FM030100 00000KT P6SM SCT200
     FM030400 00000KT P6SM BKN035
     FM030900 00000KT 4SM BR OVC025=



000
FTUS44 KMRX 021124
TAFTRI
TAF
KTRI 021124Z 0212/0312 00000KT 2SM BR SCT007 OVC015
      TEMPO 0212/0214 3/4SM -RA BR BKN007 OVC015
     FM021400 31005KT P6SM OVC015
     FM021700 34006KT P6SM BKN035
     FM021900 34005KT P6SM SCT250
     FM030100 00000KT P6SM SCT200
     FM030400 00000KT P6SM BKN035
     FM030900 00000KT 4SM BR OVC025=



000
FTUS44 KMRX 021124
TAFTYS
TAF
KTYS 021124Z 0212/0312 27006KT 5SM BR BKN007 OVC015
      TEMPO 0212/0214 2SM -RA BR OVC004
     FM021400 02008KT P6SM OVC015
     FM021800 02008KT P6SM BKN035
     FM030100 03004KT P6SM BKN080
     FM030900 VRB03KT 4SM -RA BR BKN015 OVC035=



000
FTUS44 KMRX 021124
TAFCHA
TAF
KCHA 021124Z 0212/0312 01005KT 3SM BR SCT010 OVC020
      TEMPO 0212/0214 1SM -RA BR SCT007 OVC015
     FM021500 01008KT P6SM OVC015
     FM021900 02004KT P6SM BKN025
     FM030800 VRB03KT 4SM -RA BR BKN007 OVC015=



000
FTUS44 KMRX 021009 AAA
TAFTRI
TAF AMD
KTRI 021009Z 0210/0306 00000KT 2SM -RA BR OVC007
      TEMPO 0210/0212 3/4SM BR SCT007 OVC015
     FM021400 31005KT P6SM OVC015
     FM021600 34006KT P6SM BKN035
     FM021900 34005KT P6SM SCT250
     FM030100 00000KT P6SM SCT200
     FM030400 00000KT P6SM BKN035=



000
FTUS44 KMRX 021009 AAA
TAFTRI
TAF AMD
KTRI 021009Z 0210/0306 00000KT 2SM -RA BR OVC007
      TEMPO 0210/0212 3/4SM BR SCT007 OVC015
     FM021400 31005KT P6SM OVC015
     FM021600 34006KT P6SM BKN035
     FM021900 34005KT P6SM SCT250
     FM030100 00000KT P6SM SCT200
     FM030400 00000KT P6SM BKN035=



000
FTUS44 KMRX 021009 AAA
TAFTRI
TAF AMD
KTRI 021009Z 0210/0306 00000KT 2SM -RA BR OVC007
      TEMPO 0210/0212 3/4SM BR SCT007 OVC015
     FM021400 31005KT P6SM OVC015
     FM021600 34006KT P6SM BKN035
     FM021900 34005KT P6SM SCT250
     FM030100 00000KT P6SM SCT200
     FM030400 00000KT P6SM BKN035=



000
FTUS44 KMRX 021009 AAA
TAFTRI
TAF AMD
KTRI 021009Z 0210/0306 00000KT 2SM -RA BR OVC007
      TEMPO 0210/0212 3/4SM BR SCT007 OVC015
     FM021400 31005KT P6SM OVC015
     FM021600 34006KT P6SM BKN035
     FM021900 34005KT P6SM SCT250
     FM030100 00000KT P6SM SCT200
     FM030400 00000KT P6SM BKN035=



000
FTUS44 KMRX 021008 AAA
TAFCHA
TAF AMD
KCHA 021008Z 0210/0306 VRB02KT 3SM BR OVC015
      TEMPO 0210/0212 1SM -RA BR OVC007
     FM021200 01006KT 2SM -DZ BR OVC007
     FM021400 01008KT 5SM BR BKN007 OVC015
     FM021800 01008KT P6SM OVC015
     FM022100 02004KT P6SM OVC025=



000
FTUS44 KMRX 021008 AAA
TAFCHA
TAF AMD
KCHA 021008Z 0210/0306 VRB02KT 3SM BR OVC015
      TEMPO 0210/0212 1SM -RA BR OVC007
     FM021200 01006KT 2SM -DZ BR OVC007
     FM021400 01008KT 5SM BR BKN007 OVC015
     FM021800 01008KT P6SM OVC015
     FM022100 02004KT P6SM OVC025=



000
FTUS44 KMRX 021008 AAA
TAFCHA
TAF AMD
KCHA 021008Z 0210/0306 VRB02KT 3SM BR OVC015
      TEMPO 0210/0212 1SM -RA BR OVC007
     FM021200 01006KT 2SM -DZ BR OVC007
     FM021400 01008KT 5SM BR BKN007 OVC015
     FM021800 01008KT P6SM OVC015
     FM022100 02004KT P6SM OVC025=



000
FTUS44 KMRX 021008 AAA
TAFCHA
TAF AMD
KCHA 021008Z 0210/0306 VRB02KT 3SM BR OVC015
      TEMPO 0210/0212 1SM -RA BR OVC007
     FM021200 01006KT 2SM -DZ BR OVC007
     FM021400 01008KT 5SM BR BKN007 OVC015
     FM021800 01008KT P6SM OVC015
     FM022100 02004KT P6SM OVC025=



000
FTUS44 KMRX 020540
TAFTRI
TAF
KTRI 020540Z 0206/0306 00000KT 2SM -RA BR OVC007
      TEMPO 0206/0210 4SM BR SCT007 OVC015
     FM021400 31005KT P6SM OVC015
     FM021600 34006KT P6SM BKN035
     FM021900 34005KT P6SM SCT250
     FM030100 00000KT P6SM SCT200
     FM030400 00000KT P6SM BKN035=



000
FTUS44 KMRX 020540
TAFCHA
TAF
KCHA 020540Z 0206/0306 VRB02KT 3SM BR OVC015
      TEMPO 0206/0210 1SM -RA BR OVC007
     FM021000 01006KT 2SM -DZ BR OVC007
     FM021400 01008KT 5SM BR BKN007 OVC015
     FM021800 01008KT P6SM OVC015
     FM022100 02004KT P6SM OVC025=



000
FTUS44 KMRX 020540
TAFTYS
TAF
KTYS 020540Z 0206/0306 25005KT 1 1/2SM BR OVC004
      TEMPO 0207/0211 3SM BR OVC007
     FM021100 33006KT 3SM -DZ BR BKN007 OVC015
     FM021400 02008KT P6SM OVC015
     FM021800 02008KT P6SM BKN035
     FM030100 03004KT P6SM BKN080=



000
FTUS44 KMRX 020540
TAFTYS
TAF
KTYS 020540Z 0206/0306 25005KT 1 1/2SM BR OVC004
      TEMPO 0207/0211 3SM BR OVC007
     FM021100 33006KT 3SM -DZ BR BKN007 OVC015
     FM021400 02008KT P6SM OVC015
     FM021800 02008KT P6SM BKN035
     FM030100 03004KT P6SM BKN080=



000
FTUS44 KMRX 020540
TAFTYS
TAF
KTYS 020540Z 0206/0306 25005KT 1 1/2SM BR OVC004
      TEMPO 0207/0211 3SM BR OVC007
     FM021100 33006KT 3SM -DZ BR BKN007 OVC015
     FM021400 02008KT P6SM OVC015
     FM021800 02008KT P6SM BKN035
     FM030100 03004KT P6SM BKN080=



000
FTUS44 KMRX 020540
TAFCHA
TAF
KCHA 020540Z 0206/0306 VRB02KT 3SM BR OVC015
      TEMPO 0206/0210 1SM -RA BR OVC007
     FM021000 01006KT 2SM -DZ BR OVC007
     FM021400 01008KT 5SM BR BKN007 OVC015
     FM021800 01008KT P6SM OVC015
     FM022100 02004KT P6SM OVC025=



000
FTUS44 KMRX 020540
TAFTRI
TAF
KTRI 020540Z 0206/0306 00000KT 2SM -RA BR OVC007
      TEMPO 0206/0210 4SM BR SCT007 OVC015
     FM021400 31005KT P6SM OVC015
     FM021600 34006KT P6SM BKN035
     FM021900 34005KT P6SM SCT250
     FM030100 00000KT P6SM SCT200
     FM030400 00000KT P6SM BKN035=



000
FTUS44 KMRX 020540
TAFTRI
TAF
KTRI 020540Z 0206/0306 00000KT 2SM -RA BR OVC007
      TEMPO 0206/0210 4SM BR SCT007 OVC015
     FM021400 31005KT P6SM OVC015
     FM021600 34006KT P6SM BKN035
     FM021900 34005KT P6SM SCT250
     FM030100 00000KT P6SM SCT200
     FM030400 00000KT P6SM BKN035=



000
FTUS44 KMRX 020540
TAFTYS
TAF
KTYS 020540Z 0206/0306 25005KT 1 1/2SM BR OVC004
      TEMPO 0207/0211 3SM BR OVC007
     FM021100 33006KT 3SM -DZ BR BKN007 OVC015
     FM021400 02008KT P6SM OVC015
     FM021800 02008KT P6SM BKN035
     FM030100 03004KT P6SM BKN080=



000
FTUS44 KMRX 020540
TAFCHA
TAF
KCHA 020540Z 0206/0306 VRB02KT 3SM BR OVC015
      TEMPO 0206/0210 1SM -RA BR OVC007
     FM021000 01006KT 2SM -DZ BR OVC007
     FM021400 01008KT 5SM BR BKN007 OVC015
     FM021800 01008KT P6SM OVC015
     FM022100 02004KT P6SM OVC025=



000
FTUS44 KMRX 020540
TAFTRI
TAF
KTRI 020540Z 0206/0306 00000KT 2SM -RA BR OVC007
      TEMPO 0206/0210 4SM BR SCT007 OVC015
     FM021400 31005KT P6SM OVC015
     FM021600 34006KT P6SM BKN035
     FM021900 34005KT P6SM SCT250
     FM030100 00000KT P6SM SCT200
     FM030400 00000KT P6SM BKN035=



000
FTUS44 KMRX 020540
TAFCHA
TAF
KCHA 020540Z 0206/0306 VRB02KT 3SM BR OVC015
      TEMPO 0206/0210 1SM -RA BR OVC007
     FM021000 01006KT 2SM -DZ BR OVC007
     FM021400 01008KT 5SM BR BKN007 OVC015
     FM021800 01008KT P6SM OVC015
     FM022100 02004KT P6SM OVC025=



000
FTUS44 KMRX 012320
TAFCHA
TAF
KCHA 012320Z 0200/0224 20002KT 6SM -DZ BR OVC015
     FM020300 20002KT 4SM -DZ BR OVC010
     FM021200 36007KT 6SM BR OVC008
     FM021600 01005KT P6SM OVC030
     FM021800 01005KT P6SM OVC050=



000
FTUS44 KMRX 012320
TAFTYS
TAF
KTYS 012320Z 0200/0224 00000KT 5SM -RA OVC020
     FM020300 00000KT 3SM -RA BR OVC010
     FM020600 VRB04KT 2SM -DZ BR OVC005
     FM021500 30006KT 6SM BR OVC010
     FM021800 03006KT P6SM OVC050=



000
FTUS44 KMRX 012320
TAFTYS
TAF
KTYS 012320Z 0200/0224 00000KT 5SM -RA OVC020
     FM020300 00000KT 3SM -RA BR OVC010
     FM020600 VRB04KT 2SM -DZ BR OVC005
     FM021500 30006KT 6SM BR OVC010
     FM021800 03006KT P6SM OVC050=



000
FTUS44 KMRX 012320
TAFTYS
TAF
KTYS 012320Z 0200/0224 00000KT 5SM -RA OVC020
     FM020300 00000KT 3SM -RA BR OVC010
     FM020600 VRB04KT 2SM -DZ BR OVC005
     FM021500 30006KT 6SM BR OVC010
     FM021800 03006KT P6SM OVC050=



000
FTUS44 KMRX 012320
TAFCHA
TAF
KCHA 012320Z 0200/0224 20002KT 6SM -DZ BR OVC015
     FM020300 20002KT 4SM -DZ BR OVC010
     FM021200 36007KT 6SM BR OVC008
     FM021600 01005KT P6SM OVC030
     FM021800 01005KT P6SM OVC050=



000
FTUS44 KMRX 012320
TAFCHA
TAF
KCHA 012320Z 0200/0224 20002KT 6SM -DZ BR OVC015
     FM020300 20002KT 4SM -DZ BR OVC010
     FM021200 36007KT 6SM BR OVC008
     FM021600 01005KT P6SM OVC030
     FM021800 01005KT P6SM OVC050=



000
FTUS44 KMRX 012320
TAFTRI
TAF
KTRI 012320Z 0200/0224 VRB03KT 5SM -RA OVC020
     FM020400 00000KT 3SM -RA BR OVC007
     FM021400 32006KT 6SM BR OVC010
     FM021800 34004KT P6SM BKN250=



000
FTUS44 KMRX 012320
TAFTRI
TAF
KTRI 012320Z 0200/0224 VRB03KT 5SM -RA OVC020
     FM020400 00000KT 3SM -RA BR OVC007
     FM021400 32006KT 6SM BR OVC010
     FM021800 34004KT P6SM BKN250=



000
FTUS44 KMRX 012320
TAFTYS
TAF
KTYS 012320Z 0200/0224 00000KT 5SM -RA OVC020
     FM020300 00000KT 3SM -RA BR OVC010
     FM020600 VRB04KT 2SM -DZ BR OVC005
     FM021500 30006KT 6SM BR OVC010
     FM021800 03006KT P6SM OVC050=



000
FTUS44 KMRX 012320
TAFTRI
TAF
KTRI 012320Z 0200/0224 VRB03KT 5SM -RA OVC020
     FM020400 00000KT 3SM -RA BR OVC007
     FM021400 32006KT 6SM BR OVC010
     FM021800 34004KT P6SM BKN250=



000
FTUS44 KMRX 012320
TAFTRI
TAF
KTRI 012320Z 0200/0224 VRB03KT 5SM -RA OVC020
     FM020400 00000KT 3SM -RA BR OVC007
     FM021400 32006KT 6SM BR OVC010
     FM021800 34004KT P6SM BKN250=



000
FTUS44 KMRX 011720
TAFTYS
TAF
KTYS 011720Z 0118/0218 00000KT P6SM OVC025
     FM012100 00000KT 5SM -RA OVC012
     FM020300 00000KT 2SM -RA BR OVC006
     FM021500 30006KT 6SM BR OVC010=



000
FTUS44 KMRX 011720
TAFTYS
TAF
KTYS 011720Z 0118/0218 00000KT P6SM OVC025
     FM012100 00000KT 5SM -RA OVC012
     FM020300 00000KT 2SM -RA BR OVC006
     FM021500 30006KT 6SM BR OVC010=



000
FTUS44 KMRX 011720
TAFCHA
TAF
KCHA 011720Z 0118/0218 19008KT 5SM BR OVC015
     FM012100 19006KT 3SM -RA BR OVC008
     FM020000 20002KT 2SM -DZ BR OVC004
     FM021600 36007KT 6SM BR OVC008=



000
FTUS44 KMRX 011720
TAFTYS
TAF
KTYS 011720Z 0118/0218 00000KT P6SM OVC025
     FM012100 00000KT 5SM -RA OVC012
     FM020300 00000KT 2SM -RA BR OVC006
     FM021500 30006KT 6SM BR OVC010=



000
FTUS44 KMRX 011720
TAFTRI
TAF
KTRI 011720Z 0118/0218 VRB03KT P6SM BKN040
      TEMPO 0120/0122 BKN020
     FM012200 VRB03KT 5SM -RA OVC015
     FM020400 00000KT 2SM -RA BR OVC007
     FM021400 32006KT 6SM BR OVC010=



000
FTUS44 KMRX 011720
TAFCHA
TAF
KCHA 011720Z 0118/0218 19008KT 5SM BR OVC015
     FM012100 19006KT 3SM -RA BR OVC008
     FM020000 20002KT 2SM -DZ BR OVC004
     FM021600 36007KT 6SM BR OVC008=



000
FTUS44 KMRX 011720
TAFTRI
TAF
KTRI 011720Z 0118/0218 VRB03KT P6SM BKN040
      TEMPO 0120/0122 BKN020
     FM012200 VRB03KT 5SM -RA OVC015
     FM020400 00000KT 2SM -RA BR OVC007
     FM021400 32006KT 6SM BR OVC010=



000
FTUS44 KMRX 011535 AAA
TAFCHA
TAF AMD
KCHA 011535Z 0116/0212 18005KT P6SM OVC015
     FM020100 VRB02KT 4SM -RA BR OVC007
     FM020500 VRB02KT 2SM -RA BR BKN004 OVC010=



000
FTUS44 KMRX 011535 AAA
TAFCHA
TAF AMD
KCHA 011535Z 0116/0212 18005KT P6SM OVC015
     FM020100 VRB02KT 4SM -RA BR OVC007
     FM020500 VRB02KT 2SM -RA BR BKN004 OVC010=



    US Dept of Commerce
    National Oceanic and Atmospheric Administration
    National Weather Service
    1325 East West Highway
    Silver Spring, MD 20910
    Page Author: NWS Internet Services Team
Disclaimer
Information Quality
Credits
Glossary
Privacy Policy
Freedom of Information Act (FOIA)
About Us
Career Opportunities